createdAt,value
2023-02-07T00:02:04.053Z,91.89
2023-02-07T00:05:07.285Z,92.16
2023-02-07T00:08:10.047Z,92.06
2023-02-07T00:11:20.252Z,91.54
2023-02-07T00:14:23.071Z,91.40
2023-02-07T00:17:25.660Z,91.99
2023-02-07T00:20:28.367Z,92.21
2023-02-07T00:23:31.543Z,91.71
2023-02-07T00:26:34.080Z,91.81
2023-02-07T00:29:36.808Z,92.02
2023-02-07T00:32:39.511Z,92.13
2023-02-07T00:35:42.453Z,92.74
2023-02-07T00:38:45.627Z,92.49
2023-02-07T00:41:48.356Z,92.38
2023-02-07T00:44:51.401Z,93.06
2023-02-07T00:47:53.957Z,92.64
2023-02-07T00:50:57.599Z,92.41
2023-02-07T00:54:00.264Z,92.93
2023-02-07T00:57:02.885Z,93.04
2023-02-07T01:00:05.987Z,92.23
2023-02-07T01:03:08.678Z,92.45
2023-02-07T01:06:11.289Z,92.70
2023-02-07T01:09:14.358Z,92.61
2023-02-07T01:12:17.814Z,92.49
2023-02-07T01:15:20.454Z,92.37
2023-02-07T01:18:23.232Z,92.74
2023-02-07T01:21:27.652Z,92.21
2023-02-07T01:24:31.081Z,91.98
2023-02-07T01:27:36.004Z,91.50
2023-02-07T01:30:45.285Z,91.80
2023-02-07T01:33:48.809Z,92.17
2023-02-07T01:36:51.358Z,92.53
2023-02-07T01:39:55.051Z,92.29
2023-02-07T01:43:00.330Z,91.99
2023-02-07T01:46:04.069Z,91.68
2023-02-07T01:49:11.597Z,91.40
2023-02-07T01:52:33.833Z,91.75
2023-02-07T01:55:40.390Z,91.90
2023-02-07T01:58:43.190Z,91.86
2023-02-07T02:01:47.392Z,91.68
2023-02-07T02:04:54.536Z,91.31
2023-02-07T02:07:57.256Z,91.73
2023-02-07T02:11:12.127Z,90.83
2023-02-07T02:14:23.676Z,91.11
2023-02-07T02:17:55.180Z,90.83
2023-02-07T02:21:24.567Z,91.19
2023-02-07T02:24:39.251Z,92.50
2023-02-07T02:28:01.966Z,92.85
2023-02-07T02:31:39.989Z,92.25
2023-02-07T02:34:57.773Z,92.19
2023-02-07T02:38:37.564Z,91.92
2023-02-07T02:41:55.417Z,91.88
2023-02-07T02:45:05.530Z,91.69
2023-02-07T02:48:10.851Z,91.74
2023-02-07T02:51:13.945Z,91.60
2023-02-07T02:54:31.194Z,91.47
2023-02-07T02:58:02.275Z,91.95
2023-02-07T03:01:46.753Z,92.50
2023-02-07T03:05:18.122Z,91.58
2023-02-07T03:08:37.548Z,91.10
2023-02-07T03:11:47.382Z,89.49
2023-02-07T03:15:18.481Z,88.88
2023-02-07T03:18:34.351Z,90.33
2023-02-07T03:21:57.786Z,91.27
2023-02-07T03:25:01.813Z,90.97
2023-02-07T03:28:06.933Z,91.68
2023-02-07T03:31:10.833Z,91.25
2023-02-07T03:34:17.063Z,91.74
2023-02-07T03:37:28.091Z,92.41
2023-02-07T03:40:36.048Z,92.65
2023-02-07T03:43:39.822Z,92.73
2023-02-07T03:46:42.569Z,91.75
2023-02-07T03:49:45.179Z,90.94
2023-02-07T03:52:47.791Z,90.07
2023-02-07T03:55:50.442Z,89.90
2023-02-07T03:58:53.085Z,89.11
2023-02-07T04:01:55.819Z,89.36
2023-02-07T04:04:58.443Z,89.43
2023-02-07T04:08:01.275Z,90.55
2023-02-07T04:11:04.576Z,91.22
2023-02-07T04:14:07.489Z,93.19
2023-02-07T04:17:10.098Z,92.88
2023-02-07T04:20:13.215Z,91.45
2023-02-07T04:23:15.779Z,91.00
2023-02-07T04:26:18.335Z,89.52
2023-02-07T04:29:21.039Z,88.78
2023-02-07T04:32:23.614Z,89.58
2023-02-07T04:35:26.247Z,89.60
2023-02-07T04:38:29.067Z,90.42
2023-02-07T04:41:31.575Z,90.39
2023-02-07T04:44:34.824Z,90.63
2023-02-07T04:47:37.370Z,92.39
2023-02-07T04:50:39.960Z,92.68
2023-02-07T04:53:42.659Z,91.89
2023-02-07T04:56:45.310Z,91.61
2023-02-07T04:59:47.903Z,90.52
2023-02-07T05:02:50.485Z,89.59
2023-02-07T05:05:54.164Z,89.96
2023-02-07T05:08:56.713Z,90.80
2023-02-07T05:11:59.390Z,90.44
2023-02-07T05:15:03.223Z,89.81
2023-02-07T05:18:06.309Z,90.22
2023-02-07T05:21:08.888Z,90.18
2023-02-07T05:24:11.476Z,91.25
2023-02-07T05:27:14.096Z,90.80
2023-02-07T05:30:16.791Z,89.86
2023-02-07T05:33:19.324Z,89.63
2023-02-07T05:36:21.889Z,89.51
2023-02-07T05:39:24.524Z,91.34
2023-02-07T05:42:27.096Z,92.33
2023-02-07T05:45:29.724Z,91.67
2023-02-07T05:48:32.273Z,91.30
2023-02-07T05:51:34.855Z,90.54
2023-02-07T05:54:37.473Z,90.56
2023-02-07T05:57:44.408Z,91.04
2023-02-07T06:00:49.017Z,89.93
2023-02-07T06:03:51.747Z,90.70
2023-02-07T06:06:54.339Z,91.61
2023-02-07T06:09:56.947Z,91.32
2023-02-07T06:12:59.560Z,91.19
2023-02-07T06:16:02.112Z,91.47
2023-02-07T06:19:04.781Z,90.68
2023-02-07T06:22:07.457Z,90.28
2023-02-07T06:25:12.014Z,90.91
2023-02-07T06:28:15.327Z,90.69
2023-02-07T06:31:17.990Z,91.21
2023-02-07T06:34:20.696Z,90.86
2023-02-07T06:37:23.350Z,88.72
2023-02-07T06:40:26.071Z,88.80
2023-02-07T06:43:28.763Z,88.94
2023-02-07T06:46:31.840Z,89.36
2023-02-07T06:49:34.527Z,89.26
2023-02-07T06:52:37.416Z,88.29
2023-02-07T06:55:40.813Z,87.99
2023-02-07T06:58:43.776Z,87.79
2023-02-07T07:01:48.402Z,88.31
2023-02-07T07:04:51.978Z,88.02
2023-02-07T07:07:54.550Z,87.91
2023-02-07T07:10:57.613Z,88.13
2023-02-07T07:14:00.810Z,88.05
2023-02-07T07:17:03.537Z,87.76
2023-02-07T07:20:07.811Z,87.84
2023-02-07T07:23:10.408Z,88.31
2023-02-07T07:26:13.094Z,88.72
2023-02-07T07:29:21.499Z,88.17
2023-02-07T07:32:33.646Z,89.57
2023-02-07T07:35:37.715Z,88.63
2023-02-07T07:38:43.074Z,88.95
2023-02-07T07:41:51.599Z,87.92
2023-02-07T07:45:13.493Z,87.51
2023-02-07T07:48:19.039Z,88.21
2023-02-07T07:51:21.657Z,88.36
2023-02-07T07:54:24.560Z,88.53
2023-02-07T07:57:29.019Z,88.49
2023-02-07T08:00:31.711Z,88.51
2023-02-07T08:03:34.931Z,89.26
2023-02-07T08:06:37.531Z,89.20
2023-02-07T08:09:40.339Z,89.33
2023-02-07T08:12:45.851Z,89.11
2023-02-07T08:15:48.486Z,87.85
2023-02-07T08:18:51.094Z,87.64
2023-02-07T08:21:53.859Z,87.79
2023-02-07T08:24:56.823Z,86.91
2023-02-07T08:27:59.613Z,86.94
2023-02-07T08:31:03.875Z,87.05
2023-02-07T08:34:06.656Z,86.30
2023-02-07T08:37:09.623Z,86.38
2023-02-07T08:40:15.356Z,86.72
2023-02-07T08:43:18.203Z,86.24
2023-02-07T08:46:43.604Z,85.50
2023-02-07T08:50:02.674Z,85.99
2023-02-07T08:53:22.998Z,85.05
2023-02-07T08:56:26.032Z,83.73
2023-02-07T08:59:34.807Z,83.69
2023-02-07T09:02:37.544Z,83.14
2023-02-07T09:05:40.159Z,81.80
2023-02-07T09:08:54.470Z,81.53
2023-02-07T09:12:00.116Z,80.86
2023-02-07T09:15:03.837Z,78.66
2023-02-07T09:18:06.501Z,78.66
2023-02-07T09:21:09.125Z,77.39
2023-02-07T09:24:11.848Z,77.14
2023-02-07T09:27:34.333Z,76.68
2023-02-07T09:30:43.718Z,77.09
2023-02-07T09:33:48.077Z,76.27
2023-02-07T09:36:50.841Z,75.40
2023-02-07T09:39:54.411Z,74.36
2023-02-07T09:43:02.609Z,75.02
2023-02-07T09:46:21.002Z,73.91
2023-02-07T09:49:31.738Z,74.60
2023-02-07T09:53:15.763Z,72.30
2023-02-07T09:56:37.915Z,70.90
2023-02-07T10:00:25.368Z,71.31
2023-02-07T10:03:33.901Z,71.50
2023-02-07T10:06:45.934Z,72.41
2023-02-07T10:09:49.021Z,70.77
2023-02-07T10:12:51.712Z,70.00
2023-02-07T10:16:05.533Z,70.52
2023-02-07T10:19:30.902Z,68.42
2023-02-07T10:22:57.651Z,68.07
2023-02-07T10:26:16.055Z,68.07
2023-02-07T10:42:04.717Z,66.59
2023-02-07T10:45:12.681Z,65.17
2023-02-07T10:48:15.970Z,64.96
2023-02-07T10:51:39.228Z,63.88
2023-02-07T10:54:53.029Z,65.96
2023-02-07T10:58:06.388Z,65.27
2023-02-07T11:01:27.143Z,63.89
2023-02-07T11:04:38.264Z,64.38
2023-02-07T11:07:55.830Z,63.54
2023-02-07T11:11:00.228Z,64.24
2023-02-07T11:14:07.615Z,61.54
2023-02-07T11:17:21.032Z,61.92
2023-02-07T11:20:23.549Z,63.01
2023-02-07T11:23:32.467Z,65.03
2023-02-07T11:26:39.762Z,63.42
2023-02-07T11:30:05.526Z,64.15
2023-02-07T11:33:19.767Z,63.94
2023-02-07T11:36:29.108Z,63.96
2023-02-07T11:39:36.630Z,64.22
2023-02-07T11:42:39.416Z,62.68
2023-02-07T11:45:54.304Z,61.37
2023-02-07T11:49:10.009Z,60.57
2023-02-07T11:52:15.160Z,64.58
2023-02-07T11:55:27.386Z,62.29
2023-02-07T11:58:39.728Z,62.45
2023-02-07T12:01:45.493Z,63.07
2023-02-07T12:04:48.343Z,62.12
2023-02-07T12:07:54.726Z,62.91
2023-02-07T12:11:40.132Z,61.54
2023-02-07T12:15:09.661Z,61.61
2023-02-07T12:18:37.939Z,59.80
2023-02-07T12:22:13.644Z,60.78
2023-02-07T12:25:25.801Z,58.93
2023-02-07T12:28:40.682Z,59.75
2023-02-07T12:31:54.986Z,58.35
2023-02-07T12:35:14.409Z,58.96
2023-02-07T12:38:39.978Z,59.31
2023-02-07T12:41:53.193Z,60.36
2023-02-07T12:44:58.863Z,58.97
2023-02-07T12:48:17.300Z,58.60
2023-02-07T12:51:48.142Z,57.18
2023-02-07T12:55:31.513Z,59.16
2023-02-07T12:59:00.439Z,56.61
2023-02-07T13:02:22.962Z,58.70
2023-02-07T13:05:37.828Z,57.48
2023-02-07T13:09:17.455Z,56.72
2023-02-07T13:12:38.143Z,57.91
2023-02-07T13:16:03.874Z,57.65
2023-02-07T13:19:12.713Z,58.34
2023-02-07T13:22:39.011Z,56.18
2023-02-07T13:25:47.470Z,57.56
2023-02-07T13:29:15.784Z,57.92
2023-02-07T13:32:26.178Z,57.46
2023-02-07T13:35:34.798Z,57.06
2023-02-07T13:38:56.427Z,57.30
2023-02-07T13:42:04.353Z,57.27
2023-02-07T13:45:27.092Z,56.54
2023-02-07T13:49:08.789Z,56.79
2023-02-07T13:52:21.045Z,57.19
2023-02-07T13:55:38.645Z,57.35
2023-02-07T13:59:00.035Z,56.26
2023-02-07T14:02:14.203Z,55.90
2023-02-07T14:05:39.420Z,56.61
2023-02-07T14:08:43.813Z,57.88
2023-02-07T14:11:57.432Z,55.54
2023-02-07T14:15:35.004Z,56.88
2023-02-07T14:19:05.790Z,54.96
2023-02-07T14:22:25.379Z,56.45
2023-02-07T14:25:31.131Z,56.23
2023-02-07T14:28:45.951Z,55.29
2023-02-07T14:32:25.811Z,58.39
2023-02-07T14:35:33.314Z,58.30
2023-02-07T14:39:04.657Z,57.04
2023-02-07T14:42:22.371Z,56.13
2023-02-07T14:45:28.393Z,56.28
2023-02-07T14:48:52.933Z,56.95
2023-02-07T14:52:08.317Z,57.13
2023-02-07T14:55:58.464Z,57.12
2023-02-07T14:59:01.292Z,56.69
2023-02-07T15:02:31.928Z,56.36
2023-02-07T15:05:37.520Z,56.48
2023-02-07T15:08:40.278Z,53.96
2023-02-07T15:11:59.735Z,51.22
2023-02-07T15:15:17.275Z,49.08
2023-02-07T15:18:21.366Z,50.01
2023-02-07T15:21:37.098Z,49.85
2023-02-07T15:24:51.373Z,50.46
2023-02-07T15:28:26.691Z,50.95
2023-02-07T15:31:31.313Z,50.99
2023-02-07T15:34:37.054Z,52.96
2023-02-07T15:37:44.795Z,53.66
2023-02-07T15:40:56.449Z,55.15
2023-02-07T15:44:04.814Z,56.67
2023-02-07T15:47:07.839Z,58.35
2023-02-07T15:50:13.517Z,60.50
2023-02-07T15:53:21.746Z,62.32
2023-02-07T15:56:24.901Z,63.61
2023-02-07T15:59:32.277Z,66.45
2023-02-07T16:02:40.658Z,67.17
2023-02-07T16:05:44.125Z,66.84
2023-02-07T16:08:50.220Z,68.22
2023-02-07T16:11:52.820Z,68.90
2023-02-07T16:14:55.442Z,70.18
2023-02-07T16:17:58.760Z,69.72
2023-02-07T16:21:01.413Z,71.04
2023-02-07T16:24:11.864Z,70.51
2023-02-07T16:27:20.084Z,70.94
2023-02-07T16:30:32.932Z,70.94
2023-02-07T16:33:35.568Z,72.31
2023-02-07T16:36:40.907Z,73.05
2023-02-07T16:39:43.545Z,72.55
2023-02-07T16:42:49.173Z,73.12
2023-02-07T16:45:51.813Z,74.30
2023-02-07T16:48:57.120Z,74.92
2023-02-07T16:51:59.993Z,76.08
2023-02-07T16:55:02.625Z,77.74
2023-02-07T16:58:06.293Z,78.17
2023-02-07T17:01:17.848Z,77.43
2023-02-07T17:04:21.160Z,78.08
2023-02-07T17:07:24.007Z,77.99
2023-02-07T17:10:32.822Z,78.17
2023-02-07T17:13:38.044Z,79.71
2023-02-07T17:16:41.058Z,79.17
2023-02-07T17:19:47.543Z,79.26
2023-02-07T17:22:51.840Z,79.36
2023-02-07T17:25:54.497Z,79.86
2023-02-07T17:28:57.269Z,80.55
2023-02-07T17:32:02.461Z,80.23
2023-02-07T17:35:05.310Z,81.59
2023-02-07T17:38:09.794Z,80.62
2023-02-07T17:41:18.665Z,81.11
2023-02-07T17:44:23.411Z,82.65
2023-02-07T17:47:26.314Z,82.82
2023-02-07T17:50:35.564Z,82.20
2023-02-07T17:53:38.260Z,82.42
2023-02-07T17:56:40.888Z,82.11
2023-02-07T17:59:43.674Z,82.31
2023-02-07T18:02:47.548Z,82.83
2023-02-07T18:05:50.535Z,81.78
2023-02-07T18:08:56.464Z,82.59
2023-02-07T18:12:03.689Z,81.03
2023-02-07T18:15:09.130Z,80.27
2023-02-07T18:18:13.941Z,81.09
2023-02-07T18:21:16.934Z,82.59
2023-02-07T18:24:19.619Z,82.74
2023-02-07T18:27:22.167Z,83.45
2023-02-07T18:30:26.496Z,84.09
2023-02-07T18:33:32.160Z,83.93
2023-02-07T18:36:40.578Z,84.62
2023-02-07T18:39:43.683Z,85.54
2023-02-07T18:42:49.454Z,85.84
2023-02-07T18:45:52.393Z,85.34
2023-02-07T18:48:56.465Z,85.37
2023-02-07T18:51:59.260Z,84.80
2023-02-07T18:55:02.259Z,85.12
2023-02-07T18:58:05.086Z,85.03
2023-02-07T19:01:10.556Z,85.06
2023-02-07T19:04:13.254Z,84.56
2023-02-07T19:07:16.055Z,84.87
2023-02-07T19:10:19.665Z,85.38
2023-02-07T19:13:22.646Z,85.87
2023-02-07T19:16:27.189Z,86.28
2023-02-07T19:19:31.024Z,85.28
2023-02-07T19:22:35.982Z,85.53
2023-02-07T19:25:46.077Z,84.59
2023-02-07T19:28:48.609Z,84.72
2023-02-07T19:31:51.427Z,85.77
2023-02-07T19:34:54.341Z,86.75
2023-02-07T19:37:58.851Z,86.38
2023-02-07T19:41:02.264Z,86.97
2023-02-07T19:44:05.041Z,86.46
2023-02-07T19:47:08.268Z,86.74
2023-02-07T19:50:10.952Z,86.93
2023-02-07T19:53:14.537Z,87.08
2023-02-07T19:56:18.778Z,86.23
2023-02-07T19:59:21.672Z,86.56
2023-02-07T20:02:24.723Z,86.13
2023-02-07T20:05:27.878Z,86.51
2023-02-07T20:08:34.016Z,86.50
2023-02-07T20:11:36.890Z,87.10
2023-02-07T20:14:39.643Z,86.47
2023-02-07T20:17:42.887Z,86.70
2023-02-07T20:20:48.059Z,87.11
2023-02-07T20:23:52.346Z,87.83
2023-02-07T20:26:55.264Z,86.96
2023-02-07T20:29:57.966Z,87.32
2023-02-07T20:33:00.847Z,88.12
2023-02-07T20:36:03.960Z,88.13
2023-02-07T20:39:08.405Z,88.92
2023-02-07T20:42:11.315Z,89.65
2023-02-07T20:45:14.060Z,88.90
2023-02-07T20:48:16.748Z,87.80
2023-02-07T20:51:19.269Z,87.88
2023-02-07T20:54:24.331Z,88.78
2023-02-07T20:57:28.117Z,88.78
2023-02-07T21:00:31.923Z,88.60
2023-02-07T21:03:35.126Z,88.92
2023-02-07T21:06:42.621Z,89.43
2023-02-07T21:09:45.408Z,90.48
2023-02-07T21:12:48.414Z,90.04
2023-02-07T21:16:02.473Z,90.80
2023-02-07T21:19:05.759Z,90.13
2023-02-07T21:22:08.416Z,90.70
2023-02-07T21:25:10.966Z,90.29
2023-02-07T21:28:13.761Z,90.09
2023-02-07T21:31:18.820Z,89.96
2023-02-07T21:34:22.403Z,90.17
2023-02-07T21:37:24.966Z,90.78
2023-02-07T21:40:27.606Z,90.09
2023-02-07T21:43:30.246Z,90.96
2023-02-07T21:46:36.085Z,89.68
2023-02-07T21:49:38.820Z,88.97
2023-02-07T21:52:41.464Z,88.75
2023-02-07T21:55:44.032Z,88.81
2023-02-07T21:58:46.705Z,89.67
2023-02-07T22:01:50.213Z,89.54
2023-02-07T22:04:52.889Z,89.47
2023-02-07T22:07:55.536Z,89.21
2023-02-07T22:11:03.557Z,88.64
2023-02-07T22:14:06.170Z,89.01
2023-02-07T22:17:08.723Z,89.62
2023-02-07T22:20:11.625Z,89.85
2023-02-07T22:23:14.317Z,90.53
2023-02-07T22:26:17.970Z,90.05
2023-02-07T22:29:20.598Z,90.39
2023-02-07T22:32:23.518Z,90.80
2023-02-07T22:35:26.149Z,90.79
2023-02-07T22:38:28.841Z,91.35
2023-02-07T22:41:32.284Z,91.35
2023-02-07T22:44:34.922Z,91.57
2023-02-07T22:47:37.556Z,91.63
2023-02-07T22:50:40.909Z,91.67
2023-02-07T22:53:43.628Z,91.52
2023-02-07T22:56:46.332Z,91.76
2023-02-07T22:59:48.904Z,91.38
2023-02-07T23:02:51.484Z,91.51
2023-02-07T23:05:54.044Z,92.04
2023-02-07T23:08:56.587Z,91.46
2023-02-07T23:11:59.094Z,91.71
2023-02-07T23:15:02.040Z,90.97
2023-02-07T23:18:04.923Z,91.06
2023-02-07T23:21:11.703Z,92.05
2023-02-07T23:24:14.359Z,91.60
2023-02-07T23:27:16.970Z,92.02
2023-02-07T23:30:19.503Z,92.57
2023-02-07T23:33:22.062Z,93.40
2023-02-07T23:36:24.728Z,93.68
2023-02-07T23:39:27.251Z,93.47
2023-02-07T23:42:29.882Z,92.39
2023-02-07T23:45:32.404Z,92.91
2023-02-07T23:48:38.367Z,93.09
2023-02-07T23:51:41.453Z,92.83
2023-02-07T23:54:44.027Z,92.86
2023-02-07T23:57:46.705Z,92.22
